Terminal Aerodrome Forecast
Issued by NWS

Home | Current Version | Previous Version | Text Only | Print | Product List | Glossary On
Versions: 1 2 3 4 5 6 7 8 9 10 11 12 13
000
FTUS41 KRNK 121729
TAFLWB
TAF
KLWB 121729Z 1218/1318 30014G25KT P6SM VCSH BKN025
      TEMPO 1219/1221 1SM -SHSN OVC015
     FM122200 30014G28KT 3SM -SHSN BLSN BKN030
     FM130000 30014G24KT P6SM VCSH BKN030
     FM130500 30014G25KT P6SM BKN015=

USA.gov is the U.S. government's official web portal to all federal, state and local government web resources and services.